createdAt,value
2018-08-28T00:02:09.518Z,5.00
2018-08-28T00:04:38.767Z,8.43
2018-08-28T00:07:07.771Z,10.20
2018-08-28T00:09:36.631Z,6.57
2018-08-28T00:12:05.825Z,6.73
2018-08-28T00:14:34.675Z,7.97
2018-08-28T00:17:03.795Z,2.90
2018-08-28T00:19:32.917Z,8.17
2018-08-28T00:22:01.847Z,3.03
2018-08-28T00:24:30.716Z,5.10
2018-08-28T00:26:59.735Z,7.40
2018-08-28T00:29:28.599Z,9.83
2018-08-28T00:31:57.396Z,5.93
2018-08-28T00:34:26.336Z,3.77
2018-08-28T00:36:56.123Z,6.60
2018-08-28T00:39:25.005Z,9.53
2018-08-28T00:41:53.986Z,6.23
2018-08-28T00:44:22.907Z,6.17
2018-08-28T00:46:51.927Z,7.30
2018-08-28T00:49:20.898Z,7.07
2018-08-28T00:51:49.775Z,5.27
2018-08-28T00:54:18.654Z,7.07
2018-08-28T00:56:47.655Z,6.43
2018-08-28T00:59:16.502Z,5.23
2018-08-28T01:01:45.287Z,6.60
2018-08-28T01:04:28.739Z,6.53
2018-08-28T01:06:57.822Z,7.17
2018-08-28T01:09:26.705Z,6.33
2018-08-28T01:11:55.758Z,6.27
2018-08-28T01:14:24.604Z,4.67
2018-08-28T01:16:53.495Z,5.50
2018-08-28T01:19:22.436Z,6.67
2018-08-28T01:21:51.270Z,4.30
2018-08-28T01:24:20.194Z,4.47
2018-08-28T01:26:49.177Z,7.13
2018-08-28T01:29:18.058Z,6.07
2018-08-28T01:31:46.896Z,5.50
2018-08-28T01:34:15.880Z,9.40
2018-08-28T01:36:44.690Z,4.00
2018-08-28T01:39:13.803Z,9.27
2018-08-28T01:41:42.834Z,7.97
2018-08-28T01:44:11.651Z,8.13
2018-08-28T01:46:40.535Z,8.30
2018-08-28T01:49:09.568Z,7.83
2018-08-28T01:51:38.419Z,9.27
2018-08-28T01:54:07.483Z,11.60
2018-08-28T01:56:36.583Z,8.27
2018-08-28T01:59:05.559Z,6.53
2018-08-28T02:04:48.891Z,10.00
2018-08-28T02:07:17.819Z,7.20
2018-08-28T02:12:47.817Z,5.93
2018-08-28T02:15:16.803Z,6.23
2018-08-28T02:17:45.651Z,7.10
2018-08-28T02:20:22.882Z,8.03
2018-08-28T02:22:51.720Z,7.27
2018-08-28T02:25:20.632Z,7.77
2018-08-28T02:27:49.625Z,9.07
2018-08-28T02:30:22.511Z,6.70
2018-08-28T02:32:51.721Z,5.57
2018-08-28T02:35:20.695Z,5.53
2018-08-28T02:37:49.627Z,6.13
2018-08-28T02:40:18.722Z,7.67
2018-08-28T02:42:47.570Z,7.40
2018-08-28T02:45:16.396Z,7.00
2018-08-28T02:47:45.294Z,8.40
2018-08-28T02:50:14.127Z,6.50
2018-08-28T02:52:42.977Z,8.53
2018-08-28T02:55:11.890Z,5.37
2018-08-28T02:57:40.690Z,4.43
2018-08-28T03:00:09.535Z,7.63
2018-08-28T03:02:38.487Z,6.57
2018-08-28T03:05:07.458Z,7.80
2018-08-28T03:07:36.591Z,5.50
2018-08-28T03:10:05.698Z,4.20
2018-08-28T03:12:34.543Z,6.30
2018-08-28T03:15:03.402Z,6.60
2018-08-28T03:17:32.375Z,7.70
2018-08-28T03:20:01.230Z,2.50
2018-08-28T03:22:30.339Z,6.20
2018-08-28T03:24:59.311Z,5.10
2018-08-28T03:27:28.227Z,2.70
2018-08-28T03:29:57.076Z,5.50
2018-08-28T03:32:26.054Z,9.33
2018-08-28T03:34:54.892Z,8.43
2018-08-28T03:37:23.797Z,5.03
2018-08-28T03:39:52.728Z,3.27
2018-08-28T03:42:21.566Z,7.10
2018-08-28T03:44:50.524Z,5.90
2018-08-28T03:47:19.614Z,8.87
2018-08-28T03:49:48.398Z,5.77
2018-08-28T03:52:17.635Z,7.57
2018-08-28T03:54:46.815Z,3.70
2018-08-28T03:57:15.715Z,6.07
2018-08-28T03:59:44.631Z,7.07
2018-08-28T04:02:13.823Z,8.40
2018-08-28T04:04:42.626Z,11.00
2018-08-28T04:07:11.586Z,6.00
2018-08-28T04:09:40.671Z,7.37
2018-08-28T04:12:09.523Z,7.63
2018-08-28T04:14:38.464Z,11.37
2018-08-28T04:17:07.572Z,9.70
2018-08-28T04:19:36.338Z,11.90
2018-08-28T04:22:05.283Z,6.73
2018-08-28T04:24:34.414Z,6.30
2018-08-28T04:27:03.254Z,6.47
2018-08-28T04:29:32.085Z,7.83
2018-08-28T04:32:01.119Z,7.47
2018-08-28T04:34:29.994Z,6.47
2018-08-28T04:36:58.914Z,8.57
2018-08-28T04:39:28.046Z,8.80
2018-08-28T04:41:57.009Z,6.20
2018-08-28T04:44:25.918Z,5.87
2018-08-28T04:46:55.220Z,10.47
2018-08-28T04:49:24.126Z,8.50
2018-08-28T04:51:53.025Z,8.77
2018-08-28T04:54:22.247Z,15.40
2018-08-28T04:56:51.077Z,5.00
2018-08-28T04:59:20.007Z,4.07
2018-08-28T05:01:49.088Z,9.23
2018-08-28T05:04:17.938Z,5.13
2018-08-28T05:06:46.931Z,7.63
2018-08-28T05:09:16.126Z,5.33
2018-08-28T05:11:45.239Z,7.47
2018-08-28T05:14:14.225Z,9.67
2018-08-28T05:16:43.112Z,6.33
2018-08-28T05:19:12.090Z,6.30
2018-08-28T05:21:41.155Z,6.93
2018-08-28T05:24:10.163Z,11.27
2018-08-28T05:26:39.320Z,6.27
2018-08-28T05:29:08.211Z,7.40
2018-08-28T05:31:37.212Z,7.30
2018-08-28T05:34:06.667Z,7.00
2018-08-28T05:36:35.930Z,10.00
2018-08-28T05:39:06.122Z,7.03
2018-08-28T05:41:35.025Z,5.30
2018-08-28T05:44:03.967Z,5.87
2018-08-28T05:46:32.966Z,9.80
2018-08-28T05:49:01.916Z,6.73
2018-08-28T05:51:30.784Z,4.37
2018-08-28T05:53:59.787Z,6.23
2018-08-28T05:56:28.674Z,6.83
2018-08-28T05:58:57.510Z,9.73
2018-08-28T06:01:27.140Z,6.57
2018-08-28T06:03:56.035Z,8.43
2018-08-28T06:06:25.002Z,7.10
2018-08-28T06:08:54.170Z,7.23
2018-08-28T06:11:23.239Z,8.47
2018-08-28T06:13:52.159Z,4.37
2018-08-28T06:16:21.419Z,3.53
2018-08-28T06:18:50.428Z,10.40
2018-08-28T06:21:19.303Z,8.63
2018-08-28T06:23:48.387Z,6.13
2018-08-28T06:26:17.216Z,8.33
2018-08-28T06:28:46.227Z,5.77
2018-08-28T06:31:15.267Z,6.00
2018-08-28T06:33:44.129Z,8.10
2018-08-28T06:36:13.047Z,7.70
2018-08-28T06:38:42.086Z,8.53
2018-08-28T06:41:11.025Z,7.60
2018-08-28T06:43:39.901Z,9.70
2018-08-28T06:46:09.187Z,10.43
2018-08-28T06:48:38.070Z,7.17
2018-08-28T06:51:07.014Z,5.63
2018-08-28T06:53:36.066Z,10.80
2018-08-28T06:56:04.951Z,7.47
2018-08-28T06:58:33.796Z,7.13
2018-08-28T07:01:02.793Z,9.60
2018-08-28T07:03:31.896Z,4.03
2018-08-28T07:06:00.771Z,4.67
2018-08-28T07:08:29.900Z,7.53
2018-08-28T07:10:58.767Z,8.27
2018-08-28T07:13:27.834Z,7.67
2018-08-28T07:15:56.927Z,6.57
2018-08-28T07:18:25.790Z,10.43
2018-08-28T07:20:54.923Z,3.90
2018-08-28T07:23:23.983Z,9.83
2018-08-28T07:25:52.869Z,2.47
2018-08-28T07:28:21.790Z,5.13
2018-08-28T07:30:50.731Z,2.60
2018-08-28T07:33:19.615Z,5.83
2018-08-28T07:35:48.446Z,4.30
2018-08-28T07:38:17.490Z,5.57
2018-08-28T07:40:46.915Z,4.93
2018-08-28T07:43:15.799Z,5.43
2018-08-28T07:45:44.764Z,2.97
2018-08-28T07:48:13.655Z,4.07
2018-08-28T07:50:42.455Z,4.53
2018-08-28T07:53:11.605Z,5.07
2018-08-28T07:55:40.430Z,3.63
2018-08-28T07:58:09.368Z,4.67
2018-08-28T08:00:38.406Z,2.90
2018-08-28T08:03:07.386Z,4.37
2018-08-28T08:05:36.220Z,4.07
2018-08-28T08:08:05.319Z,2.67
2018-08-28T08:10:34.437Z,1.93
2018-08-28T08:13:03.250Z,2.30
2018-08-28T08:15:32.370Z,2.53
2018-08-28T08:18:01.228Z,2.10
2018-08-28T08:20:30.142Z,1.00
2018-08-28T08:22:59.208Z,1.73
2018-08-28T08:25:28.083Z,3.63
2018-08-28T08:27:57.269Z,1.47
2018-08-28T08:30:26.235Z,1.27
2018-08-28T08:32:55.150Z,1.43
2018-08-28T08:35:24.075Z,2.67
2018-08-28T08:37:53.124Z,2.40
2018-08-28T08:40:21.982Z,0.87
2018-08-28T08:42:50.826Z,2.20
2018-08-28T08:45:20.070Z,1.07
2018-08-28T08:47:48.970Z,2.53
2018-08-28T08:50:17.803Z,1.80
2018-08-28T08:52:46.821Z,2.63
2018-08-28T08:55:15.690Z,1.87
2018-08-28T08:57:44.599Z,1.87
2018-08-28T09:00:13.696Z,1.70
2018-08-28T09:02:42.858Z,1.10
2018-08-28T09:05:11.714Z,2.13
2018-08-28T09:07:40.740Z,3.03
2018-08-28T09:10:09.703Z,2.10
2018-08-28T09:12:38.530Z,1.77
2018-08-28T09:15:07.716Z,0.60
2018-08-28T09:17:36.823Z,2.13
2018-08-28T09:20:05.883Z,1.90
2018-08-28T09:22:34.918Z,1.33
2018-08-28T09:25:03.787Z,1.80
2018-08-28T09:27:32.627Z,1.33
2018-08-28T09:30:01.650Z,2.60
2018-08-28T09:32:30.525Z,2.30
2018-08-28T09:34:59.419Z,1.23
2018-08-28T09:37:28.407Z,1.63
2018-08-28T09:39:57.246Z,1.37
2018-08-28T09:42:26.086Z,0.93
2018-08-28T09:44:55.122Z,1.67
2018-08-28T09:47:23.979Z,3.57
2018-08-28T09:49:52.848Z,4.17
2018-08-28T09:52:22.083Z,2.03
2018-08-28T09:54:50.922Z,1.87
2018-08-28T09:57:19.767Z,2.07
2018-08-28T09:59:48.922Z,1.27
2018-08-28T10:02:17.788Z,1.93
2018-08-28T10:04:46.840Z,1.70
2018-08-28T10:07:15.831Z,1.13
2018-08-28T10:09:44.795Z,1.27
2018-08-28T10:12:13.614Z,1.33
2018-08-28T10:14:42.652Z,3.83
2018-08-28T10:17:11.499Z,0.70
2018-08-28T10:19:40.619Z,1.03
2018-08-28T10:22:09.663Z,1.97
2018-08-28T10:24:38.528Z,1.53
2018-08-28T10:27:07.519Z,1.83
2018-08-28T10:29:36.628Z,2.77
2018-08-28T10:32:05.627Z,0.73
2018-08-28T10:34:34.418Z,2.08
2018-08-28T10:37:03.298Z,2.67
2018-08-28T10:39:32.191Z,1.87
2018-08-28T10:42:00.984Z,4.03
2018-08-28T10:44:30.067Z,1.20
2018-08-28T10:46:58.999Z,2.47
2018-08-28T10:49:27.840Z,2.00
2018-08-28T10:51:56.943Z,2.17
2018-08-28T10:54:25.851Z,3.77
2018-08-28T10:56:54.700Z,3.20
2018-08-28T10:59:23.780Z,4.80
2018-08-28T11:01:52.694Z,3.13
2018-08-28T11:04:21.540Z,4.83
2018-08-28T11:06:50.484Z,0.83
2018-08-28T11:09:19.339Z,3.53
2018-08-28T11:11:48.205Z,2.10
2018-08-28T11:14:17.294Z,1.80
2018-08-28T11:16:46.247Z,1.77
2018-08-28T11:19:15.144Z,2.63
2018-08-28T11:21:44.204Z,3.17
2018-08-28T11:24:13.292Z,3.07
2018-08-28T11:26:42.234Z,2.67
2018-08-28T11:29:11.459Z,1.63
2018-08-28T11:31:40.316Z,1.07
2018-08-28T11:34:09.400Z,0.77
2018-08-28T11:36:38.455Z,1.40
2018-08-28T11:39:07.836Z,1.17
2018-08-28T11:41:36.644Z,2.03
2018-08-28T11:44:05.787Z,2.47
2018-08-28T11:46:34.984Z,1.93
2018-08-28T11:49:03.787Z,1.90
2018-08-28T11:51:32.974Z,2.17
2018-08-28T11:54:02.100Z,1.90
2018-08-28T11:56:30.938Z,1.07
2018-08-28T11:58:59.988Z,2.93
2018-08-28T12:01:28.831Z,1.10
2018-08-28T12:03:57.635Z,0.47
2018-08-28T12:06:26.700Z,1.70
2018-08-28T12:08:55.748Z,1.63
2018-08-28T12:11:24.639Z,1.43
2018-08-28T12:13:53.697Z,1.40
2018-08-28T12:16:22.562Z,1.17
2018-08-28T12:18:51.441Z,2.53
2018-08-28T12:21:20.719Z,2.10
2018-08-28T12:23:49.674Z,0.97
2018-08-28T12:26:18.769Z,0.60
2018-08-28T12:28:47.747Z,1.23
2018-08-28T12:31:16.567Z,1.50
2018-08-28T12:33:45.464Z,1.03
2018-08-28T12:36:14.571Z,0.80
2018-08-28T12:38:43.484Z,1.77
2018-08-28T12:41:12.433Z,1.17
2018-08-28T12:43:41.678Z,1.40
2018-08-28T12:46:10.568Z,0.77
2018-08-28T12:48:39.462Z,1.77
2018-08-28T12:51:08.421Z,1.20
2018-08-28T12:53:37.283Z,1.17
2018-08-28T12:56:06.179Z,1.40
2018-08-28T12:58:35.187Z,1.00
2018-08-28T13:01:04.283Z,1.40
2018-08-28T13:03:33.137Z,1.37
2018-08-28T13:06:02.225Z,2.23
2018-08-28T13:08:31.055Z,2.30
2018-08-28T13:10:59.967Z,0.83
2018-08-28T13:13:29.010Z,0.70
2018-08-28T13:15:57.831Z,1.55
2018-08-28T13:18:26.871Z,2.20
2018-08-28T13:20:55.906Z,0.43
2018-08-28T13:23:24.812Z,0.50
2018-08-28T13:25:53.905Z,0.50
2018-08-28T13:28:22.879Z,0.50
2018-08-28T13:30:51.734Z,4.20
2018-08-28T13:33:20.635Z,0.33
2018-08-28T13:35:49.907Z,1.00
2018-08-28T13:38:18.854Z,0.40
2018-08-28T13:40:47.917Z,1.80
2018-08-28T13:43:16.831Z,0.60
2018-08-28T13:45:45.764Z,0.30
2018-08-28T13:48:14.668Z,0.50
2018-08-28T13:50:43.725Z,1.03
2018-08-28T13:53:12.817Z,0.30
2018-08-28T13:55:41.741Z,0.80
2018-08-28T13:58:10.694Z,0.30
2018-08-28T14:00:39.514Z,0.30
2018-08-28T14:03:08.342Z,0.40
2018-08-28T14:05:37.408Z,0.70
2018-08-28T14:08:06.242Z,0.30
2018-08-28T14:10:35.283Z,0.23
2018-08-28T14:13:11.583Z,0.50
2018-08-28T14:15:40.373Z,0.60
2018-08-28T14:18:09.206Z,0.73
2018-08-28T14:20:38.223Z,0.40
2018-08-28T14:23:07.147Z,0.30
2018-08-28T14:25:36.464Z,1.13
2018-08-28T14:28:06.122Z,0.87
2018-08-28T14:30:34.991Z,0.40
2018-08-28T14:33:03.855Z,1.27
2018-08-28T14:35:33.042Z,1.03
2018-08-28T14:38:01.911Z,0.70
2018-08-28T14:40:31.007Z,0.50
2018-08-28T14:43:00.095Z,0.50
2018-08-28T14:45:28.973Z,0.63
2018-08-28T14:47:57.831Z,1.90
2018-08-28T14:50:26.851Z,1.10
2018-08-28T14:52:55.760Z,0.40
2018-08-28T14:55:24.707Z,0.43
2018-08-28T14:57:53.726Z,0.50
2018-08-28T15:00:22.563Z,1.43
2018-08-28T15:02:51.425Z,0.40
2018-08-28T15:05:20.618Z,1.23
2018-08-28T15:07:49.478Z,0.60
2018-08-28T15:10:18.343Z,1.20
2018-08-28T15:12:47.401Z,0.70
2018-08-28T15:15:16.406Z,1.03
2018-08-28T15:17:45.232Z,0.57
2018-08-28T15:20:14.174Z,1.03
2018-08-28T15:22:43.014Z,0.80
2018-08-28T15:25:11.903Z,0.87
2018-08-28T15:27:40.931Z,0.47
2018-08-28T15:30:09.906Z,0.50
2018-08-28T15:32:38.834Z,1.40
2018-08-28T15:35:07.902Z,1.10
2018-08-28T15:37:36.716Z,0.80
2018-08-28T15:40:05.643Z,1.03
2018-08-28T15:42:34.596Z,1.70
2018-08-28T15:45:03.515Z,0.63
2018-08-28T15:47:32.384Z,0.73
2018-08-28T15:50:01.588Z,0.60
2018-08-28T15:52:30.462Z,1.60
2018-08-28T15:54:59.339Z,1.63
2018-08-28T15:57:28.375Z,1.33
2018-08-28T15:59:57.317Z,1.27
2018-08-28T16:02:26.263Z,0.40
2018-08-28T16:04:55.268Z,3.50
2018-08-28T16:07:24.126Z,0.47
2018-08-28T16:09:52.975Z,0.50
2018-08-28T16:12:21.947Z,0.57
2018-08-28T16:14:50.781Z,0.57
2018-08-28T16:17:19.611Z,0.60
2018-08-28T16:19:48.604Z,0.50
2018-08-28T16:22:22.035Z,1.03
2018-08-28T16:24:50.986Z,0.57
2018-08-28T16:27:19.850Z,0.83
2018-08-28T16:29:48.716Z,0.40
2018-08-28T16:32:17.984Z,0.40
2018-08-28T16:34:46.815Z,0.73
2018-08-28T16:37:15.684Z,0.43
2018-08-28T16:39:44.635Z,0.90
2018-08-28T16:42:13.488Z,1.10
2018-08-28T16:44:42.303Z,0.97
2018-08-28T16:47:11.275Z,0.90
2018-08-28T16:49:40.498Z,0.70
2018-08-28T16:52:09.495Z,0.50
2018-08-28T16:54:38.715Z,1.50
2018-08-28T16:57:07.628Z,0.73
2018-08-28T16:59:36.458Z,2.27
2018-08-28T17:02:05.544Z,0.87
2018-08-28T17:04:34.777Z,0.70
2018-08-28T17:07:03.660Z,2.10
2018-08-28T17:09:33.061Z,2.23
2018-08-28T17:12:01.930Z,0.70
2018-08-28T17:14:30.837Z,0.87
2018-08-28T17:16:59.863Z,1.17
2018-08-28T17:19:28.694Z,0.90
2018-08-28T17:21:57.567Z,1.63
2018-08-28T17:24:26.535Z,2.43
2018-08-28T17:26:55.391Z,1.40
2018-08-28T17:29:24.289Z,4.07
2018-08-28T17:31:53.381Z,3.47
2018-08-28T17:34:22.849Z,0.73
2018-08-28T17:36:51.791Z,0.90
2018-08-28T17:39:20.913Z,1.70
2018-08-28T17:41:49.786Z,1.27
2018-08-28T17:44:18.690Z,0.80
2018-08-28T17:46:47.724Z,2.07
2018-08-28T17:49:16.716Z,0.90
2018-08-28T17:51:45.835Z,1.40
2018-08-28T17:54:15.546Z,1.43
2018-08-28T17:56:44.619Z,2.57
2018-08-28T17:59:13.455Z,2.87
2018-08-28T18:01:42.522Z,2.47
2018-08-28T18:04:11.351Z,2.20
2018-08-28T18:06:40.214Z,2.10
2018-08-28T18:09:09.182Z,4.47
2018-08-28T18:11:38.039Z,3.27
2018-08-28T18:14:06.912Z,2.93
2018-08-28T18:16:35.866Z,1.50
2018-08-28T18:19:04.798Z,3.93
2018-08-28T18:21:33.757Z,0.70
2018-08-28T18:24:02.777Z,0.67
2018-08-28T18:26:31.674Z,1.60
2018-08-28T18:29:00.617Z,2.30
2018-08-28T18:31:29.619Z,3.63
2018-08-28T18:33:58.538Z,6.03
2018-08-28T18:36:27.769Z,2.23
2018-08-28T18:38:57.136Z,2.23
2018-08-28T18:41:26.076Z,1.57
2018-08-28T18:43:54.874Z,1.10
2018-08-28T18:46:23.891Z,1.10
2018-08-28T18:48:52.763Z,1.53
2018-08-28T18:51:21.639Z,0.93
2018-08-28T18:53:50.628Z,2.20
2018-08-28T18:56:19.466Z,1.50
2018-08-28T18:58:48.332Z,1.47
2018-08-28T19:01:17.591Z,3.47
2018-08-28T19:03:46.435Z,1.40
2018-08-28T19:06:15.307Z,3.60
2018-08-28T19:08:44.733Z,3.63
2018-08-28T19:11:13.667Z,1.60
2018-08-28T19:13:42.587Z,0.80
2018-08-28T19:16:11.658Z,1.37
2018-08-28T19:18:40.546Z,1.33
2018-08-28T19:21:09.510Z,2.20
2018-08-28T19:23:38.927Z,2.00
2018-08-28T19:26:07.960Z,1.20
2018-08-28T19:28:36.854Z,1.27
2018-08-28T19:31:06.034Z,2.33
2018-08-28T19:33:34.931Z,1.57
2018-08-28T19:36:03.814Z,2.27
2018-08-28T19:38:33.331Z,1.77
2018-08-28T19:41:02.230Z,2.17
2018-08-28T19:43:31.113Z,1.30
2018-08-28T19:46:00.011Z,0.93
2018-08-28T19:48:28.882Z,1.50
2018-08-28T19:50:57.716Z,1.43
2018-08-28T19:53:26.723Z,1.13
2018-08-28T19:55:55.578Z,2.90
2018-08-28T19:58:24.557Z,2.80
2018-08-28T20:00:53.904Z,1.93
2018-08-28T20:03:22.765Z,1.27
2018-08-28T20:05:51.689Z,3.00
2018-08-28T20:08:20.725Z,2.57
2018-08-28T20:10:49.562Z,2.57
2018-08-28T20:13:18.451Z,2.47
2018-08-28T20:15:47.362Z,0.70
2018-08-28T20:18:16.199Z,2.80
2018-08-28T20:20:45.166Z,1.57
2018-08-28T20:23:14.119Z,1.82
2018-08-28T20:25:42.970Z,2.63
2018-08-28T20:28:11.795Z,2.47
2018-08-28T20:30:41.088Z,0.80
2018-08-28T20:33:09.992Z,0.60
2018-08-28T20:35:38.819Z,3.37
2018-08-28T20:38:07.739Z,3.03
2018-08-28T20:40:36.639Z,1.43
2018-08-28T20:43:05.495Z,2.63
2018-08-28T20:45:34.405Z,2.00
2018-08-28T20:48:03.314Z,2.97
2018-08-28T20:50:32.195Z,2.23
2018-08-28T20:53:01.232Z,4.13
2018-08-28T20:55:30.503Z,1.07
2018-08-28T20:57:59.395Z,1.57
2018-08-28T21:00:29.302Z,3.80
2018-08-28T21:02:58.361Z,2.10
2018-08-28T21:05:28.791Z,1.70
2018-08-28T21:07:59.268Z,2.70
2018-08-28T21:10:28.251Z,3.30
2018-08-28T21:12:57.155Z,5.60
2018-08-28T21:15:26.049Z,2.53
2018-08-28T21:17:54.891Z,4.67
2018-08-28T21:20:23.720Z,3.07
2018-08-28T21:22:52.709Z,4.67
2018-08-28T21:25:21.484Z,3.57
2018-08-28T21:27:50.359Z,1.50
2018-08-28T21:30:19.284Z,5.13
2018-08-28T21:32:48.064Z,6.53
2018-08-28T21:35:16.880Z,1.83
2018-08-28T21:37:45.712Z,1.50
2018-08-28T21:40:14.493Z,2.40
2018-08-28T21:42:43.528Z,1.43
2018-08-28T21:45:12.423Z,2.17
2018-08-28T21:47:41.263Z,2.63
2018-08-28T21:50:10.146Z,0.93
2018-08-28T21:52:39.195Z,1.30
2018-08-28T21:55:08.006Z,2.77
2018-08-28T21:57:36.777Z,1.47
2018-08-28T22:00:06.271Z,4.17
2018-08-28T22:02:35.060Z,4.70
2018-08-28T22:05:03.961Z,2.63
2018-08-28T22:07:37.940Z,2.93
2018-08-28T22:10:07.028Z,2.33
2018-08-28T22:12:36.009Z,4.80
2018-08-28T22:15:04.912Z,4.83
2018-08-28T22:17:33.811Z,1.53
2018-08-28T22:20:02.661Z,4.47
2018-08-28T22:22:31.519Z,2.20
2018-08-28T22:25:00.589Z,1.80
2018-08-28T22:27:29.996Z,1.53
2018-08-28T22:29:58.994Z,3.23
2018-08-28T22:32:27.893Z,2.77
2018-08-28T22:34:56.748Z,2.23
2018-08-28T22:37:25.532Z,1.70
2018-08-28T22:39:54.549Z,1.50
2018-08-28T22:42:23.640Z,3.63
2018-08-28T22:44:53.052Z,2.63
2018-08-28T22:47:22.079Z,2.70
2018-08-28T22:49:51.176Z,1.43
2018-08-28T22:52:19.972Z,2.40
2018-08-28T22:54:49.013Z,1.57
2018-08-28T22:57:17.813Z,1.83
2018-08-28T22:59:46.609Z,1.53
2018-08-28T23:02:15.564Z,1.73
2018-08-28T23:04:44.408Z,3.07
2018-08-28T23:07:13.334Z,1.27
2018-08-28T23:09:42.400Z,2.23
2018-08-28T23:12:11.208Z,4.90
2018-08-28T23:14:40.025Z,1.93
2018-08-28T23:17:23.480Z,3.70
2018-08-28T23:19:52.268Z,1.30
2018-08-28T23:22:21.024Z,1.73
2018-08-28T23:24:50.288Z,1.23
2018-08-28T23:27:19.284Z,2.57
2018-08-28T23:29:48.102Z,5.27
2018-08-28T23:32:17.099Z,2.77
2018-08-28T23:34:45.864Z,3.47
2018-08-28T23:37:14.675Z,6.07
2018-08-28T23:39:43.635Z,1.47
2018-08-28T23:42:12.449Z,2.27
2018-08-28T23:44:41.264Z,1.87
2018-08-28T23:47:10.467Z,3.23
2018-08-28T23:49:39.236Z,1.63
2018-08-28T23:52:08.065Z,2.37
2018-08-28T23:54:37.032Z,1.83
2018-08-28T23:57:05.951Z,2.70
2018-08-28T23:59:34.815Z,1.50
